KSQL

San Carlos Airport

San Carlos, California, USA
METAR KSQL 181547Z VRB04KT 4SM OVC011 13/11 A3016
Observed Flight Rules
Oct-18 @ 15:47 UTC (9 minutes ago) Marginal Visual Flight Rules
Wind Visibility Clouds
Variable at 4 knots 4 miles
  • Overcast at 1,100' AGL
Temperatures Readings
Current 13°C / 55°F
Dewpoint 11°C / 52°F
Humidity 88%
Altimeter 30.16" Hg
Pressure 1021 hPa
Elevation 1
METAR KSQL 181547Z VRB04KT 4SM OVC011 13/11 A3016
Observed Flight Rules
Oct-18 @ 15:47 UTC
(9 minutes ago)
MVFR
Wind Visibility
Variable at 4 knots 4 miles
Clouds
  • Overcast at 1,100' AGL
Temperature Dewpoint
13°C / 55°F 11°C / 52°F
Humidity Altimeter Pressure
88% 30.16" Hg 1021 hPa